createdAt,value
2023-06-21T00:00:04.613Z,34.33
2023-06-21T00:01:04.711Z,34.35
2023-06-21T00:02:04.706Z,34.32
2023-06-21T00:03:04.779Z,34.26
2023-06-21T00:04:04.849Z,34.25
2023-06-21T00:05:04.795Z,34.15
2023-06-21T00:06:04.814Z,34.19
2023-06-21T00:07:04.864Z,34.25
2023-06-21T00:08:04.915Z,34.26
2023-06-21T00:09:04.925Z,34.34
2023-06-21T00:10:05.050Z,34.41
2023-06-21T00:11:05.094Z,34.46
2023-06-21T00:13:02.840Z,34.53
2023-06-21T00:14:02.872Z,34.48
2023-06-21T00:15:02.813Z,34.49
2023-06-21T00:16:02.839Z,34.53
2023-06-21T00:17:02.813Z,34.56
2023-06-21T00:18:02.841Z,34.52
2023-06-21T00:19:02.804Z,34.41
2023-06-21T00:20:02.778Z,34.44
2023-06-21T00:21:02.760Z,34.38
2023-06-21T00:22:02.786Z,34.46
2023-06-21T00:23:02.789Z,34.43
2023-06-21T00:24:02.812Z,34.57
2023-06-21T00:25:02.777Z,34.51
2023-06-21T00:26:02.793Z,34.51
2023-06-21T00:27:02.776Z,34.58
2023-06-21T00:28:02.734Z,34.59
2023-06-21T00:29:02.713Z,34.55
2023-06-21T00:30:02.745Z,34.56
2023-06-21T00:31:02.803Z,34.49
2023-06-21T00:32:02.700Z,34.41
2023-06-21T00:33:02.735Z,34.40
2023-06-21T00:34:02.681Z,34.46
2023-06-21T00:35:02.674Z,34.40
2023-06-21T00:36:03.521Z,34.44
2023-06-21T00:37:02.691Z,34.44
2023-06-21T00:38:02.662Z,34.43
2023-06-21T00:39:02.672Z,34.44
2023-06-21T00:40:02.623Z,34.43
2023-06-21T00:41:02.635Z,34.35
2023-06-21T00:42:02.671Z,34.31
2023-06-21T00:43:02.621Z,34.27
2023-06-21T00:44:02.631Z,34.31
2023-06-21T00:45:02.620Z,34.38
2023-06-21T00:46:02.725Z,34.44
2023-06-21T00:47:02.611Z,34.35
2023-06-21T00:48:02.621Z,34.35
2023-06-21T00:49:02.604Z,34.34
2023-06-21T00:50:02.610Z,34.34
2023-06-21T00:51:02.565Z,34.41
2023-06-21T00:52:02.586Z,34.41
2023-06-21T00:53:02.575Z,34.43
2023-06-21T00:54:02.585Z,34.36
2023-06-21T00:55:02.590Z,34.30
2023-06-21T00:56:02.621Z,34.31
2023-06-21T00:57:02.684Z,34.21
2023-06-21T00:58:02.682Z,34.24
2023-06-21T00:59:02.810Z,34.20
2023-06-21T01:00:02.780Z,34.23
2023-06-21T01:01:02.828Z,34.22
2023-06-21T01:02:02.909Z,34.41
2023-06-21T01:03:02.904Z,34.54
2023-06-21T01:04:02.945Z,34.63
2023-06-21T01:05:03.035Z,34.70
2023-06-21T01:06:03.082Z,34.97
2023-06-21T01:07:03.138Z,35.05
2023-06-21T01:08:03.169Z,35.27
2023-06-21T01:09:03.237Z,35.16
2023-06-21T01:10:03.219Z,35.31
2023-06-21T01:11:03.247Z,35.43
2023-06-21T01:12:03.408Z,35.53
2023-06-21T01:13:03.364Z,35.44
2023-06-21T01:14:03.409Z,35.56
2023-06-21T01:15:03.470Z,35.61
2023-06-21T01:16:03.532Z,35.66
2023-06-21T01:17:03.612Z,35.68
2023-06-21T01:18:03.681Z,35.64
2023-06-21T01:19:03.733Z,35.61
2023-06-21T01:20:03.778Z,35.67
2023-06-21T01:21:03.836Z,35.89
2023-06-21T01:22:03.908Z,35.89
2023-06-21T01:23:03.997Z,35.94
2023-06-21T01:24:04.136Z,36.02
2023-06-21T01:25:04.062Z,35.74
2023-06-21T01:26:04.152Z,35.99
2023-06-21T01:27:04.239Z,36.01
2023-06-21T01:28:04.258Z,35.98
2023-06-21T01:29:04.306Z,36.06
2023-06-21T01:30:04.368Z,36.11
2023-06-21T01:31:04.414Z,36.25
2023-06-21T01:32:04.568Z,36.44
2023-06-21T01:33:04.604Z,36.54
2023-06-21T01:34:04.599Z,36.57
2023-06-21T01:35:04.652Z,36.53
2023-06-21T01:36:04.732Z,36.64
2023-06-21T01:37:04.791Z,36.74
2023-06-21T01:38:04.835Z,36.88
2023-06-21T01:39:04.907Z,36.84
2023-06-21T01:40:04.932Z,36.86
2023-06-21T01:42:23.764Z,37.02
2023-06-21T01:43:23.746Z,36.90
2023-06-21T01:44:23.759Z,36.90
2023-06-21T01:45:23.729Z,36.92
2023-06-21T01:46:23.769Z,36.95
2023-06-21T01:47:23.725Z,37.00
2023-06-21T01:48:23.727Z,37.09
2023-06-21T01:49:23.716Z,37.21
2023-06-21T01:50:23.696Z,37.25
2023-06-21T01:51:23.736Z,37.19
2023-06-21T01:52:23.680Z,37.28
2023-06-21T01:53:23.669Z,37.19
2023-06-21T01:54:23.721Z,37.20
2023-06-21T01:55:23.655Z,37.16
2023-06-21T01:56:23.673Z,37.20
2023-06-21T01:57:23.670Z,37.22
2023-06-21T01:58:23.651Z,37.20
2023-06-21T01:59:23.640Z,37.28
2023-06-21T02:00:23.641Z,37.36
2023-06-21T02:01:23.637Z,37.34
2023-06-21T02:02:23.682Z,37.39
2023-06-21T02:03:23.616Z,37.40
2023-06-21T02:04:23.608Z,37.40
2023-06-21T02:05:23.636Z,37.51
2023-06-21T02:06:23.723Z,37.60
2023-06-21T02:07:23.613Z,37.61
2023-06-21T02:08:23.598Z,37.71
2023-06-21T02:09:23.596Z,37.71
2023-06-21T02:10:23.562Z,37.75
2023-06-21T02:11:23.644Z,37.79
2023-06-21T02:12:23.658Z,37.83
2023-06-21T02:13:23.563Z,37.83
2023-06-21T02:14:23.556Z,37.76
2023-06-21T02:15:23.565Z,37.76
2023-06-21T02:16:23.523Z,37.80
2023-06-21T02:17:23.580Z,37.75
2023-06-21T02:18:23.523Z,37.77
2023-06-21T02:19:23.605Z,37.67
2023-06-21T02:20:23.922Z,37.69
2023-06-21T02:21:23.567Z,37.72
2023-06-21T02:22:23.646Z,37.79
2023-06-21T02:23:23.676Z,37.84
2023-06-21T02:24:23.804Z,37.79
2023-06-21T02:25:23.799Z,37.81
2023-06-21T02:26:23.886Z,37.80
2023-06-21T02:27:23.968Z,37.72
2023-06-21T02:28:24.007Z,37.70
2023-06-21T02:29:24.049Z,37.66
2023-06-21T02:30:24.135Z,37.58
2023-06-21T02:31:24.206Z,37.46
2023-06-21T02:32:24.293Z,37.41
2023-06-21T02:33:24.354Z,37.40
2023-06-21T02:34:24.520Z,37.45
2023-06-21T02:35:24.493Z,37.36
2023-06-21T02:36:24.533Z,37.26
2023-06-21T02:37:24.606Z,37.19
2023-06-21T02:38:24.674Z,37.10
2023-06-21T02:39:24.711Z,37.06
2023-06-21T02:40:24.821Z,37.02
2023-06-21T02:41:24.831Z,36.96
2023-06-21T02:42:24.920Z,36.95
2023-06-21T02:43:24.974Z,36.88
2023-06-21T02:44:25.100Z,36.92
2023-06-21T02:45:25.065Z,36.90
2023-06-21T02:46:25.150Z,36.93
2023-06-21T02:47:25.179Z,37.00
2023-06-21T02:48:25.264Z,36.98
2023-06-21T02:49:25.322Z,36.93
2023-06-21T02:50:25.555Z,36.89
2023-06-21T02:51:25.447Z,36.95
2023-06-21T02:52:25.522Z,36.99
2023-06-21T02:53:25.556Z,37.01
2023-06-21T02:54:25.602Z,37.09
2023-06-21T02:55:25.712Z,37.09
2023-06-21T02:56:25.776Z,37.08
2023-06-21T02:57:25.807Z,37.17
2023-06-21T02:58:25.886Z,37.13
2023-06-21T02:59:25.945Z,37.19
2023-06-21T03:00:26.274Z,37.29
2023-06-21T03:01:26.150Z,37.36
2023-06-21T03:02:26.156Z,37.46
2023-06-21T03:03:26.299Z,37.63
2023-06-21T03:04:26.244Z,37.73
2023-06-21T03:05:26.328Z,37.80
2023-06-21T03:06:26.382Z,37.86
2023-06-21T03:07:26.435Z,37.95
2023-06-21T03:08:26.494Z,38.05
2023-06-21T03:09:26.567Z,38.03
2023-06-21T03:10:26.892Z,38.04
2023-06-21T03:11:26.703Z,38.10
2023-06-21T03:12:26.725Z,38.16
2023-06-21T03:13:26.803Z,38.13
2023-06-21T03:14:26.876Z,38.13
2023-06-21T03:15:26.926Z,38.15
2023-06-21T03:16:26.995Z,38.29
2023-06-21T03:17:27.069Z,38.28
2023-06-21T03:18:27.108Z,38.25
2023-06-21T03:19:27.151Z,38.19
2023-06-21T03:20:27.585Z,38.14
2023-06-21T03:21:27.300Z,38.20
2023-06-21T03:22:27.328Z,38.18
2023-06-21T03:23:27.391Z,38.24
2023-06-21T03:24:27.447Z,38.23
2023-06-21T03:25:27.479Z,38.39
2023-06-21T03:26:27.487Z,38.41
2023-06-21T03:27:27.519Z,38.46
2023-06-21T03:28:27.577Z,38.49
2023-06-21T03:29:27.574Z,38.63
2023-06-21T03:30:27.894Z,38.58
2023-06-21T03:31:27.694Z,38.62
2023-06-21T03:32:27.714Z,38.61
2023-06-21T03:33:27.713Z,38.56
2023-06-21T03:34:27.758Z,38.63
2023-06-21T03:35:27.793Z,38.61
2023-06-21T03:36:27.881Z,38.55
2023-06-21T03:37:28.007Z,38.58
2023-06-21T03:38:27.988Z,38.56
2023-06-21T03:39:28.029Z,38.52
2023-06-21T03:40:28.289Z,38.51
2023-06-21T03:41:28.141Z,38.60
2023-06-21T03:42:28.222Z,38.56
2023-06-21T03:43:28.269Z,38.52
2023-06-21T03:44:28.356Z,38.43
2023-06-21T03:45:28.423Z,38.46
2023-06-21T03:46:28.482Z,38.41
2023-06-21T03:47:28.565Z,38.42
2023-06-21T03:48:28.570Z,38.49
2023-06-21T03:49:28.662Z,38.47
2023-06-21T03:50:28.949Z,38.44
2023-06-21T03:51:28.779Z,38.54
2023-06-21T03:52:28.863Z,38.58
2023-06-21T03:53:28.925Z,38.58
2023-06-21T03:54:28.971Z,38.60
2023-06-21T03:55:28.984Z,38.57
2023-06-21T03:56:29.066Z,38.57
2023-06-21T03:57:29.157Z,38.54
2023-06-21T03:58:29.178Z,38.55
2023-06-21T03:59:29.231Z,38.69
2023-06-21T04:00:29.485Z,38.77
2023-06-21T04:01:29.340Z,38.86
2023-06-21T04:02:29.338Z,38.85
2023-06-21T04:03:29.329Z,38.86
2023-06-21T04:04:29.324Z,38.79
2023-06-21T04:05:29.363Z,38.88
2023-06-21T04:06:29.382Z,38.87
2023-06-21T04:07:29.390Z,38.97
2023-06-21T04:08:29.416Z,39.02
2023-06-21T04:09:29.377Z,39.04
2023-06-21T04:10:29.608Z,38.94
2023-06-21T04:11:29.418Z,38.94
2023-06-21T04:12:29.454Z,38.98
2023-06-21T04:13:29.457Z,39.09
2023-06-21T04:14:29.453Z,39.10
2023-06-21T04:15:29.463Z,39.10
2023-06-21T04:16:29.459Z,39.06
2023-06-21T04:17:29.494Z,38.98
2023-06-21T04:18:29.462Z,39.07
2023-06-21T04:19:29.484Z,39.06
2023-06-21T04:20:29.767Z,39.15
2023-06-21T04:21:29.521Z,39.06
2023-06-21T04:22:29.533Z,38.98
2023-06-21T04:23:29.557Z,38.92
2023-06-21T04:24:29.646Z,38.83
2023-06-21T04:25:29.627Z,38.72
2023-06-21T04:26:29.645Z,38.69
2023-06-21T04:27:29.740Z,38.73
2023-06-21T04:28:29.770Z,38.78
2023-06-21T04:29:29.865Z,38.69
2023-06-21T04:30:29.999Z,38.67
2023-06-21T04:31:30.006Z,38.76
2023-06-21T04:32:30.028Z,38.77
2023-06-21T04:33:30.031Z,38.75
2023-06-21T04:34:30.068Z,38.84
2023-06-21T04:35:30.078Z,38.94
2023-06-21T04:36:30.060Z,39.05
2023-06-21T04:37:30.138Z,39.06
2023-06-21T04:38:30.064Z,39.10
2023-06-21T04:39:30.060Z,39.09
2023-06-21T04:40:30.044Z,39.06
2023-06-21T04:41:30.052Z,39.10
2023-06-21T04:42:30.017Z,39.10
2023-06-21T04:43:30.015Z,39.11
2023-06-21T04:44:30.035Z,39.09
2023-06-21T04:45:30.077Z,39.17
2023-06-21T04:46:30.038Z,39.21
2023-06-21T04:47:30.061Z,39.28
2023-06-21T04:48:30.045Z,39.33
2023-06-21T04:49:30.032Z,39.31
2023-06-21T04:50:30.057Z,39.23
2023-06-21T04:51:30.039Z,39.35
2023-06-21T04:52:30.044Z,39.57
2023-06-21T04:53:30.187Z,39.48
2023-06-21T04:54:30.031Z,39.61
2023-06-21T04:55:30.335Z,39.84
2023-06-21T04:56:30.060Z,39.79
2023-06-21T04:57:30.059Z,39.89
2023-06-21T04:58:30.064Z,39.97
2023-06-21T04:59:30.093Z,40.04
2023-06-21T05:00:30.339Z,40.07
2023-06-21T05:01:30.147Z,40.09
2023-06-21T05:02:30.257Z,40.05
2023-06-21T05:03:30.285Z,39.92
2023-06-21T05:04:30.194Z,39.88
2023-06-21T05:05:32.144Z,39.95
2023-06-21T05:06:30.176Z,39.92
2023-06-21T05:07:30.188Z,39.89
2023-06-21T05:08:30.175Z,39.92
2023-06-21T05:09:30.160Z,40.09
2023-06-21T05:10:32.121Z,40.07
2023-06-21T05:11:30.173Z,40.10
2023-06-21T05:12:30.137Z,40.10
2023-06-21T05:13:30.152Z,40.10
2023-06-21T05:14:30.130Z,40.09
2023-06-21T05:15:30.119Z,39.92
2023-06-21T05:16:30.132Z,39.97
2023-06-21T05:17:30.145Z,39.96
2023-06-21T05:18:30.084Z,39.86
2023-06-21T05:19:30.095Z,39.81
2023-06-21T05:20:30.291Z,39.82
2023-06-21T05:21:30.071Z,39.79
2023-06-21T05:22:30.110Z,39.85
2023-06-21T05:23:30.074Z,39.82
2023-06-21T05:24:30.080Z,39.74
2023-06-21T05:25:30.029Z,39.70
2023-06-21T05:26:30.080Z,39.63
2023-06-21T05:27:30.053Z,39.60
2023-06-21T05:28:30.051Z,39.59
2023-06-21T05:29:30.029Z,39.57
2023-06-21T05:30:30.384Z,39.55
2023-06-21T05:31:30.021Z,39.55
2023-06-21T05:32:30.066Z,39.44
2023-06-21T05:33:30.016Z,39.34
2023-06-21T05:34:29.999Z,39.35
2023-06-21T05:35:30.000Z,39.29
2023-06-21T05:36:30.013Z,39.40
2023-06-21T05:37:30.000Z,39.36
2023-06-21T05:38:29.970Z,39.41
2023-06-21T05:39:29.958Z,39.37
2023-06-21T05:40:30.321Z,39.26
2023-06-21T05:41:29.946Z,39.30
2023-06-21T05:42:29.958Z,39.03
2023-06-21T05:43:29.959Z,39.05
2023-06-21T05:44:29.941Z,39.33
2023-06-21T05:45:29.925Z,39.48
2023-06-21T05:46:29.955Z,39.57
2023-06-21T05:47:29.972Z,39.57
2023-06-21T05:48:29.904Z,39.63
2023-06-21T05:49:29.907Z,39.71
2023-06-21T05:50:30.029Z,39.71
2023-06-21T05:51:29.856Z,39.82
2023-06-21T05:52:29.911Z,39.87
2023-06-21T05:53:29.878Z,39.79
2023-06-21T05:54:29.866Z,39.77
2023-06-21T05:55:29.843Z,39.99
2023-06-21T05:56:29.830Z,40.12
2023-06-21T05:57:29.833Z,40.34
2023-06-21T05:58:29.835Z,40.52
2023-06-21T05:59:29.806Z,40.86
2023-06-21T06:00:30.198Z,41.12
2023-06-21T06:01:29.839Z,41.22
2023-06-21T06:02:29.943Z,41.39
2023-06-21T06:03:29.840Z,41.42
2023-06-21T06:04:29.781Z,41.46
2023-06-21T06:05:29.808Z,41.39
2023-06-21T06:06:29.789Z,41.36
2023-06-21T06:07:29.780Z,41.24
2023-06-21T06:08:29.756Z,41.37
2023-06-21T06:09:29.821Z,41.65
2023-06-21T06:10:29.946Z,41.43
2023-06-21T06:11:29.745Z,41.56
2023-06-21T06:12:29.738Z,41.81
2023-06-21T06:13:29.708Z,41.69
2023-06-21T06:14:29.729Z,41.60
2023-06-21T06:15:29.741Z,41.87
2023-06-21T06:16:29.699Z,41.81
2023-06-21T06:17:29.732Z,41.95
2023-06-21T06:18:29.682Z,42.05
2023-06-21T06:19:29.693Z,42.01
2023-06-21T06:20:30.035Z,42.37
2023-06-21T06:21:29.647Z,42.13
2023-06-21T06:22:29.677Z,42.10
2023-06-21T06:23:29.657Z,42.20
2023-06-21T06:24:29.640Z,42.31
2023-06-21T06:25:29.615Z,42.41
2023-06-21T06:26:29.706Z,42.55
2023-06-21T06:27:29.808Z,42.57
2023-06-21T06:28:29.764Z,42.60
2023-06-21T06:29:29.791Z,42.77
2023-06-21T06:30:30.143Z,42.74
2023-06-21T06:31:29.968Z,42.81
2023-06-21T06:32:29.937Z,42.95
2023-06-21T06:33:29.982Z,42.99
2023-06-21T06:34:30.030Z,43.17
2023-06-21T06:35:30.138Z,43.02
2023-06-21T06:36:30.143Z,43.12
2023-06-21T06:37:32.422Z,42.91
2023-06-21T06:38:30.402Z,42.81
2023-06-21T06:39:30.448Z,42.83
2023-06-21T06:40:30.790Z,43.06
2023-06-21T06:41:30.562Z,43.20
2023-06-21T06:42:30.607Z,43.16
2023-06-21T06:43:30.703Z,43.11
2023-06-21T06:44:30.746Z,43.39
2023-06-21T06:45:30.810Z,43.66
2023-06-21T06:46:30.865Z,43.77
2023-06-21T06:47:30.960Z,43.25
2023-06-21T06:48:30.930Z,43.50
2023-06-21T06:49:30.918Z,43.71
2023-06-21T06:50:31.080Z,43.34
2023-06-21T06:51:30.927Z,42.92
2023-06-21T06:52:30.920Z,42.68
2023-06-21T06:53:30.927Z,42.47
2023-06-21T06:54:30.952Z,42.59
2023-06-21T06:55:30.950Z,42.50
2023-06-21T06:56:30.953Z,42.54
2023-06-21T06:57:38.147Z,42.34
2023-06-21T06:58:31.936Z,42.23
2023-06-21T06:59:30.954Z,42.13
2023-06-21T07:00:31.304Z,41.95
2023-06-21T07:01:30.899Z,41.87
2023-06-21T07:02:30.964Z,41.82
2023-06-21T07:03:30.987Z,41.80
2023-06-21T07:04:30.985Z,41.67
2023-06-21T07:05:31.116Z,41.65
2023-06-21T07:06:30.868Z,41.57
2023-06-21T07:07:33.608Z,41.60
2023-06-21T07:08:30.898Z,41.52
2023-06-21T07:09:30.911Z,41.63
2023-06-21T07:10:31.248Z,41.63
2023-06-21T07:11:30.901Z,41.72
2023-06-21T07:12:30.896Z,41.93
2023-06-21T07:13:30.893Z,42.03
2023-06-21T07:14:30.889Z,41.97
2023-06-21T07:15:30.881Z,41.94
2023-06-21T07:16:30.839Z,41.93
2023-06-21T07:17:30.968Z,41.96
2023-06-21T07:18:30.848Z,42.13
2023-06-21T07:19:30.854Z,42.01
2023-06-21T07:20:31.302Z,42.14
2023-06-21T07:21:30.975Z,42.10
2023-06-21T07:22:30.847Z,42.22
2023-06-21T07:23:30.907Z,42.27
2023-06-21T07:24:30.836Z,42.42
2023-06-21T07:25:30.834Z,42.31
2023-06-21T07:26:30.806Z,42.31
2023-06-21T07:27:30.998Z,42.30
2023-06-21T07:28:30.813Z,42.31
2023-06-21T07:29:30.791Z,42.41
2023-06-21T07:30:31.254Z,42.29
2023-06-21T07:31:30.857Z,42.41
2023-06-21T07:32:32.162Z,42.49
2023-06-21T07:33:30.801Z,42.36
2023-06-21T07:34:30.902Z,42.30
2023-06-21T07:35:30.956Z,42.26
2023-06-21T07:36:30.774Z,42.17
2023-06-21T07:37:30.745Z,42.06
2023-06-21T07:38:30.714Z,41.95
2023-06-21T07:39:41.369Z,41.88
2023-06-21T07:40:31.888Z,41.81
2023-06-21T07:41:30.717Z,42.10
2023-06-21T07:42:30.719Z,42.20
2023-06-21T07:43:30.742Z,41.43
2023-06-21T07:44:30.677Z,41.31
2023-06-21T07:45:30.916Z,41.58
2023-06-21T07:46:30.740Z,41.46
2023-06-21T07:47:30.702Z,41.33
2023-06-21T07:48:30.675Z,40.99
2023-06-21T07:49:30.702Z,40.85
2023-06-21T07:50:30.695Z,40.74
2023-06-21T07:51:30.700Z,40.68
2023-06-21T07:52:30.642Z,40.60
2023-06-21T07:53:32.020Z,40.42
2023-06-21T07:54:30.719Z,40.20
2023-06-21T07:55:31.001Z,40.17
2023-06-21T07:56:30.801Z,40.27
2023-06-21T07:57:30.822Z,40.36
2023-06-21T07:58:30.873Z,40.37
2023-06-21T07:59:30.892Z,40.44
2023-06-21T08:00:30.913Z,40.49
2023-06-21T08:01:31.020Z,40.57
2023-06-21T08:02:31.075Z,40.64
2023-06-21T08:03:31.081Z,40.68
2023-06-21T08:04:31.097Z,40.79
2023-06-21T08:05:31.371Z,40.74
2023-06-21T08:06:31.374Z,40.81
2023-06-21T08:07:31.118Z,40.90
2023-06-21T08:08:31.130Z,40.86
2023-06-21T08:09:31.110Z,40.68
2023-06-21T08:10:31.141Z,40.66
2023-06-21T08:11:31.108Z,40.68
2023-06-21T08:12:31.130Z,40.78
2023-06-21T08:13:31.157Z,40.85
2023-06-21T08:14:31.121Z,40.84
2023-06-21T08:15:31.234Z,40.68
2023-06-21T08:16:31.120Z,40.70
2023-06-21T08:17:31.171Z,40.59
2023-06-21T08:18:31.152Z,40.55
2023-06-21T08:19:31.095Z,40.38
2023-06-21T08:20:31.104Z,40.11
2023-06-21T08:21:31.113Z,39.91
2023-06-21T08:22:31.116Z,39.74
2023-06-21T08:23:31.133Z,39.61
2023-06-21T08:24:31.140Z,39.62
2023-06-21T08:25:31.263Z,39.64
2023-06-21T08:26:31.157Z,39.61
2023-06-21T08:27:31.157Z,39.42
2023-06-21T08:28:31.204Z,39.20
2023-06-21T08:29:31.198Z,39.09
2023-06-21T08:30:31.224Z,39.05
2023-06-21T08:31:31.279Z,39.22
2023-06-21T08:32:31.290Z,39.26
2023-06-21T08:33:31.298Z,39.32
2023-06-21T08:34:31.322Z,39.54
2023-06-21T08:35:31.387Z,39.53
2023-06-21T08:36:31.318Z,39.46
2023-06-21T08:37:31.293Z,39.61
2023-06-21T08:38:31.297Z,39.74
2023-06-21T08:39:32.400Z,39.76
2023-06-21T08:40:31.279Z,39.92
2023-06-21T08:41:31.289Z,39.91
2023-06-21T08:42:31.267Z,39.88
2023-06-21T08:43:31.265Z,39.90
2023-06-21T08:44:31.266Z,39.82
2023-06-21T08:45:31.372Z,39.74
2023-06-21T08:46:31.302Z,39.62
2023-06-21T08:47:31.308Z,39.58
2023-06-21T08:48:31.250Z,39.59
2023-06-21T08:49:31.274Z,39.54
2023-06-21T08:50:31.258Z,39.47
2023-06-21T08:51:31.267Z,39.32
2023-06-21T08:52:31.224Z,39.27
2023-06-21T08:53:31.227Z,39.17
2023-06-21T08:54:31.265Z,39.09
2023-06-21T08:55:31.203Z,38.89
2023-06-21T08:56:31.228Z,38.96
2023-06-21T08:57:31.258Z,38.80
2023-06-21T08:58:31.211Z,38.81
2023-06-21T08:59:31.204Z,38.76
2023-06-21T09:00:31.301Z,38.80
2023-06-21T09:01:31.235Z,38.92
2023-06-21T09:02:31.320Z,39.01
2023-06-21T09:03:31.319Z,39.20
2023-06-21T09:04:31.417Z,39.35
2023-06-21T09:05:31.240Z,39.43
2023-06-21T09:06:31.263Z,39.47
2023-06-21T09:07:31.357Z,39.45
2023-06-21T09:08:31.293Z,39.33
2023-06-21T09:09:31.249Z,39.15
2023-06-21T09:10:31.502Z,38.98
2023-06-21T09:11:31.288Z,38.59
2023-06-21T09:12:31.311Z,38.28
2023-06-21T09:13:31.384Z,38.07
2023-06-21T09:14:31.411Z,37.86
2023-06-21T09:15:31.456Z,37.58
2023-06-21T09:16:31.525Z,37.45
2023-06-21T09:17:31.648Z,37.38
2023-06-21T09:18:31.643Z,37.60
2023-06-21T09:19:32.785Z,37.60
2023-06-21T09:20:31.929Z,37.52
2023-06-21T09:21:31.794Z,37.40
2023-06-21T09:22:31.860Z,37.39
2023-06-21T09:23:31.911Z,37.32
2023-06-21T09:24:31.992Z,37.34
2023-06-21T09:25:32.077Z,37.23
2023-06-21T09:26:32.117Z,37.26
2023-06-21T09:27:32.181Z,37.30
2023-06-21T09:28:32.243Z,37.22
2023-06-21T09:29:32.272Z,37.21
2023-06-21T09:30:37.897Z,37.12
2023-06-21T09:31:33.357Z,37.04
2023-06-21T09:32:32.435Z,37.10
2023-06-21T09:33:32.456Z,37.17
2023-06-21T09:34:32.331Z,37.27
2023-06-21T09:35:32.295Z,37.17
2023-06-21T09:36:32.404Z,37.30
2023-06-21T09:37:32.323Z,37.47
2023-06-21T09:38:32.297Z,37.64
2023-06-21T09:39:32.303Z,37.74
2023-06-21T09:40:32.285Z,37.81
2023-06-21T09:41:32.325Z,37.81
2023-06-21T09:42:32.317Z,37.89
2023-06-21T09:43:32.435Z,37.78
2023-06-21T09:44:32.459Z,37.77
2023-06-21T09:45:32.513Z,37.75
2023-06-21T09:46:32.681Z,37.77
2023-06-21T09:47:32.725Z,37.70
2023-06-21T09:48:32.828Z,37.71
2023-06-21T09:49:32.797Z,37.68
2023-06-21T09:50:32.993Z,37.76
2023-06-21T09:51:32.893Z,37.91
2023-06-21T09:52:32.902Z,38.11
2023-06-21T09:53:32.888Z,38.17
2023-06-21T09:54:32.926Z,38.18
2023-06-21T09:55:32.940Z,38.17
2023-06-21T09:56:32.989Z,38.18
2023-06-21T09:57:32.960Z,38.11
2023-06-21T09:58:33.036Z,38.02
2023-06-21T09:59:32.971Z,38.06
2023-06-21T10:00:33.036Z,38.05
2023-06-21T10:01:33.107Z,38.02
2023-06-21T10:02:33.696Z,37.93
2023-06-21T10:03:33.102Z,38.01
2023-06-21T10:04:33.061Z,38.30
2023-06-21T10:05:33.074Z,38.27
2023-06-21T10:06:33.131Z,38.31
2023-06-21T10:07:33.102Z,38.38
2023-06-21T10:08:33.139Z,38.34
2023-06-21T10:09:33.186Z,38.39
2023-06-21T10:10:33.138Z,38.48
2023-06-21T10:11:33.123Z,38.54
2023-06-21T10:12:33.126Z,38.55
2023-06-21T10:13:33.163Z,38.66
2023-06-21T10:14:33.123Z,38.62
2023-06-21T10:15:33.652Z,38.65
2023-06-21T10:16:33.133Z,38.60
2023-06-21T10:17:33.139Z,38.53
2023-06-21T10:18:33.216Z,38.48
2023-06-21T10:19:33.119Z,38.41
2023-06-21T10:20:33.165Z,38.33
2023-06-21T10:21:33.211Z,38.27
2023-06-21T10:22:33.290Z,38.25
2023-06-21T10:23:33.352Z,38.21
2023-06-21T10:24:33.410Z,38.24
2023-06-21T10:25:33.463Z,38.21
2023-06-21T10:26:33.517Z,38.15
2023-06-21T10:27:33.578Z,38.05
2023-06-21T10:28:33.663Z,37.94
2023-06-21T10:29:33.708Z,37.88
2023-06-21T10:30:33.765Z,37.95
2023-06-21T10:31:33.915Z,38.15
2023-06-21T10:32:33.973Z,38.43
2023-06-21T10:33:33.930Z,39.03
2023-06-21T10:34:33.982Z,39.62
2023-06-21T10:35:33.992Z,39.93
2023-06-21T10:36:33.984Z,40.37
2023-06-21T10:37:34.002Z,40.83
2023-06-21T10:38:33.997Z,41.24
2023-06-21T10:39:33.990Z,41.85
2023-06-21T10:40:34.006Z,41.81
2023-06-21T10:41:34.017Z,40.57
2023-06-21T10:42:34.087Z,39.70
2023-06-21T10:43:34.160Z,38.81
2023-06-21T10:44:34.226Z,38.96
2023-06-21T10:45:34.251Z,38.54
2023-06-21T10:46:34.434Z,38.69
2023-06-21T10:47:34.416Z,38.88
2023-06-21T10:48:34.443Z,38.94
2023-06-21T10:49:34.518Z,38.94
2023-06-21T10:50:34.504Z,39.02
2023-06-21T10:51:34.601Z,39.06
2023-06-21T10:52:34.667Z,39.04
2023-06-21T10:53:34.676Z,38.98
2023-06-21T10:54:34.733Z,38.83
2023-06-21T10:55:34.753Z,38.77
2023-06-21T10:56:34.805Z,38.64
2023-06-21T10:57:34.923Z,38.59
2023-06-21T10:58:34.962Z,38.58
2023-06-21T10:59:34.956Z,38.58
2023-06-21T11:00:34.994Z,38.68
2023-06-21T11:01:35.132Z,38.75
2023-06-21T11:02:35.129Z,38.67
2023-06-21T11:03:35.144Z,38.47
2023-06-21T11:04:42.307Z,38.28
2023-06-21T11:05:36.182Z,38.21
2023-06-21T11:06:40.157Z,38.16
2023-06-21T11:07:36.183Z,38.07
2023-06-21T11:08:35.156Z,37.96
2023-06-21T11:09:35.174Z,37.90
2023-06-21T11:10:35.128Z,37.82
2023-06-21T11:11:35.128Z,37.80
2023-06-21T11:12:35.137Z,37.85
2023-06-21T11:13:35.139Z,37.85
2023-06-21T11:14:35.115Z,37.86
2023-06-21T11:15:35.125Z,37.74
2023-06-21T11:16:35.175Z,37.77
2023-06-21T11:17:35.162Z,37.63
2023-06-21T11:18:35.126Z,37.60
2023-06-21T11:19:35.142Z,37.55
2023-06-21T11:20:35.220Z,37.56
2023-06-21T11:21:35.311Z,37.46
2023-06-21T11:22:35.336Z,37.64
2023-06-21T11:23:35.374Z,37.63
2023-06-21T11:24:35.452Z,37.55
2023-06-21T11:25:35.529Z,37.26
2023-06-21T11:26:35.590Z,37.18
2023-06-21T11:27:35.603Z,37.25
2023-06-21T11:28:35.699Z,37.46
2023-06-21T11:29:35.725Z,37.62
2023-06-21T11:30:35.801Z,37.66
2023-06-21T11:31:35.921Z,37.80
2023-06-21T11:32:35.964Z,37.80
2023-06-21T11:33:36.079Z,37.89
2023-06-21T11:34:36.075Z,37.70
2023-06-21T11:35:36.149Z,38.26
2023-06-21T11:36:36.185Z,38.14
2023-06-21T11:37:36.292Z,38.52
2023-06-21T11:38:36.352Z,38.69
2023-06-21T11:39:36.357Z,38.42
2023-06-21T11:40:37.917Z,37.90
2023-06-21T11:41:36.432Z,37.78
2023-06-21T11:42:36.528Z,37.08
2023-06-21T11:43:36.505Z,36.87
2023-06-21T11:44:36.560Z,37.81
2023-06-21T11:45:36.802Z,37.42
2023-06-21T11:46:36.657Z,37.56
2023-06-21T11:47:36.711Z,38.21
2023-06-21T11:48:36.755Z,37.98
2023-06-21T11:49:36.720Z,37.92
2023-06-21T11:50:36.788Z,38.19
2023-06-21T11:51:36.760Z,37.97
2023-06-21T11:52:36.781Z,37.98
2023-06-21T11:53:36.842Z,38.06
2023-06-21T11:54:36.896Z,37.85
2023-06-21T11:55:36.905Z,38.08
2023-06-21T11:56:36.949Z,38.06
2023-06-21T11:57:37.038Z,38.37
2023-06-21T11:58:37.094Z,38.42
2023-06-21T11:59:37.093Z,38.51
2023-06-21T12:00:37.150Z,38.72
2023-06-21T12:01:37.190Z,38.76
2023-06-21T12:02:37.327Z,38.81
2023-06-21T12:03:37.487Z,38.73
2023-06-21T12:04:37.446Z,38.44
2023-06-21T12:05:37.406Z,38.76
2023-06-21T12:06:37.488Z,38.88
2023-06-21T12:07:37.551Z,39.03
2023-06-21T12:08:37.598Z,39.02
2023-06-21T12:09:37.668Z,38.96
2023-06-21T12:10:37.738Z,38.80
2023-06-21T12:11:37.749Z,38.65
2023-06-21T12:12:37.811Z,38.77
2023-06-21T12:13:37.840Z,38.78
2023-06-21T12:14:37.877Z,38.78
2023-06-21T12:15:38.252Z,38.68
2023-06-21T12:16:37.985Z,38.72
2023-06-21T12:17:38.058Z,38.58
2023-06-21T12:18:38.218Z,38.69
2023-06-21T12:19:38.130Z,38.35
2023-06-21T12:20:38.118Z,38.08
2023-06-21T12:21:38.173Z,38.02
2023-06-21T12:22:38.272Z,37.73
2023-06-21T12:23:38.314Z,37.83
2023-06-21T12:24:38.335Z,37.70
2023-06-21T12:25:38.381Z,37.87
2023-06-21T12:26:38.418Z,37.84
2023-06-21T12:27:40.201Z,37.79
2023-06-21T12:28:38.469Z,38.14
2023-06-21T12:29:38.422Z,38.10
2023-06-21T12:30:38.475Z,38.13
2023-06-21T12:31:38.428Z,38.03
2023-06-21T12:32:38.472Z,38.10
2023-06-21T12:33:39.221Z,38.15
2023-06-21T12:34:38.428Z,38.13
2023-06-21T12:35:38.413Z,38.14
2023-06-21T12:36:38.372Z,38.31
2023-06-21T12:37:38.392Z,38.31
2023-06-21T12:38:38.399Z,38.12
2023-06-21T12:40:38.463Z,37.98
2023-06-21T12:41:38.495Z,38.01
2023-06-21T12:42:38.510Z,38.18
2023-06-21T12:43:38.586Z,38.13
2023-06-21T12:44:38.606Z,38.18
2023-06-21T12:45:38.649Z,38.07
2023-06-21T12:46:38.664Z,38.02
2023-06-21T12:47:38.757Z,38.15
2023-06-21T12:48:38.754Z,38.11
2023-06-21T12:49:38.807Z,38.28
2023-06-21T12:50:38.841Z,38.35
2023-06-21T12:51:38.916Z,38.21
2023-06-21T12:52:38.899Z,38.51
2023-06-21T12:53:38.932Z,38.52
2023-06-21T12:54:38.998Z,38.62
2023-06-21T12:55:39.006Z,38.48